createdAt,value
2019-05-29T03:51:02.233Z,100670.97
2019-05-29T03:53:34.273Z,100672.53
2019-05-29T03:56:06.278Z,100681.55
2019-05-29T03:58:37.834Z,100678.18
2019-05-29T04:01:10.376Z,100675.96
2019-05-29T04:03:42.143Z,100682.70
2019-05-29T04:06:13.398Z,100693.37
2019-05-29T04:08:44.615Z,100691.20
2019-05-29T04:11:15.790Z,100695.02
2019-05-29T04:13:47.268Z,100701.75
2019-05-29T04:16:20.300Z,100700.83
2019-05-29T04:18:52.258Z,100712.28
2019-05-29T04:21:25.296Z,100716.42
2019-05-29T04:23:57.887Z,100719.30
2019-05-29T04:26:33.640Z,100711.06
2019-05-29T04:29:05.519Z,100717.47
2019-05-29T04:31:37.007Z,100727.78
2019-05-29T04:34:09.349Z,100732.56
2019-05-29T04:36:40.465Z,100735.52
2019-05-29T04:39:11.658Z,100740.31
2019-05-29T04:41:43.029Z,100743.66
2019-05-29T04:44:14.180Z,100756.97
2019-05-29T04:46:45.503Z,100762.86
2019-05-29T04:49:20.193Z,100769.75
2019-05-29T04:51:49.810Z,100769.30
2019-05-29T04:54:20.909Z,100771.81
2019-05-29T04:56:52.037Z,100771.99
2019-05-29T04:59:23.219Z,100774.89
2019-05-29T05:01:54.436Z,100774.48
2019-05-29T05:04:25.548Z,100781.06
2019-05-29T05:06:56.697Z,100786.06
2019-05-29T05:09:27.860Z,100796.46
2019-05-29T05:11:59.982Z,100800.95
2019-05-29T05:14:31.572Z,100808.30
2019-05-29T05:17:03.074Z,100815.06
2019-05-29T05:19:35.938Z,100813.39
2019-05-29T05:22:08.931Z,100815.42
2019-05-29T05:24:43.511Z,100821.61
2019-05-29T05:27:14.405Z,100830.09
2019-05-29T05:29:45.744Z,100839.05
2019-05-29T05:32:17.145Z,100842.45
2019-05-29T05:34:49.053Z,100853.66
2019-05-29T05:37:20.214Z,100849.33
2019-05-29T05:39:51.376Z,100853.50
2019-05-29T05:42:22.466Z,100864.77
2019-05-29T05:44:53.662Z,100873.15
2019-05-29T05:47:24.831Z,100884.66
2019-05-29T05:49:55.943Z,100884.33
2019-05-29T05:52:27.137Z,100890.31
2019-05-29T05:54:58.236Z,100896.76
2019-05-29T05:57:29.342Z,100900.85
2019-05-29T06:00:00.531Z,100905.58
2019-05-29T06:02:31.773Z,100899.04
2019-05-29T06:05:03.077Z,100912.15
2019-05-29T06:07:34.260Z,100914.13
2019-05-29T06:10:07.823Z,100908.27
2019-05-29T06:12:40.606Z,100914.92
2019-05-29T06:15:13.102Z,100920.17
2019-05-29T06:18:04.533Z,100908.63
2019-05-29T06:20:17.240Z,100905.75
2019-05-29T06:22:48.532Z,100914.61
2019-05-29T06:25:20.238Z,100915.13
2019-05-29T06:27:51.404Z,100915.77
2019-05-29T06:30:22.711Z,100915.24
2019-05-29T06:32:53.955Z,100918.27
2019-05-29T06:35:25.095Z,100927.48
2019-05-29T06:37:56.183Z,100928.51
2019-05-29T06:40:33.891Z,100937.31
2019-05-29T06:43:05.990Z,100942.92
2019-05-29T06:45:37.896Z,100933.84
2019-05-29T06:48:09.602Z,100941.90
2019-05-29T06:50:41.527Z,100947.17
2019-05-29T06:53:12.854Z,100941.73
2019-05-29T06:55:44.105Z,100943.69
2019-05-29T06:58:15.421Z,100956.28
2019-05-29T07:00:46.881Z,100955.83
2019-05-29T07:03:18.133Z,100960.64
2019-05-29T07:05:51.380Z,100968.64
2019-05-29T07:08:37.563Z,100961.53
2019-05-29T07:10:55.149Z,100975.92
2019-05-29T07:13:26.304Z,100980.48
2019-05-29T07:15:57.472Z,100977.52
2019-05-29T07:18:28.644Z,100981.12
2019-05-29T07:20:59.771Z,100991.30
2019-05-29T07:23:30.908Z,100981.53
2019-05-29T07:26:03.054Z,100978.99
2019-05-29T07:28:34.191Z,100989.66
2019-05-29T07:31:05.392Z,100985.33
2019-05-29T07:33:37.011Z,100986.34
2019-05-29T07:36:08.365Z,100999.58
2019-05-29T07:38:39.683Z,101001.23
2019-05-29T07:41:10.866Z,100992.45
2019-05-29T07:43:43.832Z,100998.79
2019-05-29T07:46:15.063Z,101000.96
2019-05-29T07:50:34.268Z,101005.95
2019-05-29T07:51:23.231Z,101006.77
2019-05-29T07:53:54.705Z,101009.82
2019-05-29T07:56:27.192Z,101033.40
2019-05-29T07:59:02.845Z,101025.70
2019-05-29T08:01:31.412Z,101024.22
2019-05-29T08:04:02.575Z,101022.95
2019-05-29T08:06:33.915Z,101030.19
2019-05-29T08:09:07.011Z,101037.27
2019-05-29T08:11:39.379Z,101045.06
2019-05-29T08:14:10.633Z,101039.27
2019-05-29T08:16:42.059Z,101040.37
2019-05-29T08:19:13.548Z,101051.40
2019-05-29T08:21:57.925Z,101048.30
2019-05-29T08:24:29.038Z,101065.72
2019-05-29T08:27:00.156Z,101053.58
2019-05-29T08:29:31.465Z,101054.80
2019-05-29T08:32:02.552Z,101067.19
2019-05-29T08:34:34.083Z,101073.58
2019-05-29T08:37:07.446Z,101083.00
2019-05-29T08:39:38.057Z,101055.08
2019-05-29T08:42:22.421Z,101083.88
2019-05-29T08:44:43.269Z,101078.89
2019-05-29T08:47:14.632Z,101075.68
2019-05-29T08:49:48.080Z,101080.48
2019-05-29T08:52:18.533Z,101092.88
2019-05-29T08:54:50.128Z,101085.48
2019-05-29T08:57:21.375Z,101100.34
2019-05-29T08:59:52.742Z,101096.87
2019-05-29T09:02:23.930Z,101108.04
2019-05-29T09:04:55.097Z,101100.05
2019-05-29T09:07:26.566Z,101118.66
2019-05-29T09:09:58.370Z,101099.58
2019-05-29T09:12:30.116Z,101105.66
2019-05-29T09:15:01.386Z,101102.45
2019-05-29T09:17:34.595Z,101101.58
2019-05-29T09:20:25.317Z,101103.20
2019-05-29T09:22:41.045Z,101092.59
2019-05-29T09:25:14.246Z,101094.86
2019-05-29T09:27:45.679Z,101110.13
2019-05-29T09:30:19.668Z,101107.09
2019-05-29T09:32:52.754Z,101095.46
2019-05-29T09:35:24.923Z,101123.06
2019-05-29T09:37:57.294Z,101117.94
2019-05-29T09:40:28.415Z,101123.27
2019-05-29T09:42:59.542Z,101116.31
2019-05-29T09:45:30.797Z,101108.67
2019-05-29T09:48:02.021Z,101114.27
2019-05-29T09:50:49.351Z,101125.20
2019-05-29T09:53:06.221Z,101124.97
2019-05-29T09:55:37.318Z,101127.11
2019-05-29T09:58:09.471Z,101120.55
2019-05-29T10:00:40.668Z,101133.79
2019-05-29T10:03:11.776Z,101127.56
2019-05-29T10:05:43.131Z,101134.30
2019-05-29T10:08:16.997Z,101135.50
2019-05-29T10:10:47.411Z,101138.42
2019-05-29T10:13:18.725Z,101131.38
2019-05-29T10:15:49.868Z,101140.67
2019-05-29T10:18:32.116Z,101127.67
2019-05-29T10:20:55.846Z,101139.59
2019-05-29T10:23:26.763Z,101150.09
2019-05-29T10:26:00.714Z,101156.30
2019-05-29T10:28:49.331Z,101160.67
2019-05-29T10:31:05.124Z,101169.20
2019-05-29T10:33:37.631Z,101163.55
2019-05-29T10:36:08.761Z,101170.68
2019-05-29T10:38:39.938Z,101173.07
2019-05-29T10:41:11.110Z,101172.48
2019-05-29T10:43:42.922Z,101169.26
2019-05-29T10:46:14.508Z,101174.16
2019-05-29T10:48:49.362Z,101183.87
2019-05-29T10:51:18.518Z,101185.17
2019-05-29T10:53:51.896Z,101191.41
2019-05-29T10:56:23.770Z,101198.80
2019-05-29T10:58:59.600Z,101185.90
2019-05-29T11:01:28.625Z,101191.11
2019-05-29T11:03:59.787Z,101204.30
2019-05-29T11:06:31.118Z,101195.64
2019-05-29T11:09:02.365Z,101202.77
2019-05-29T11:11:33.475Z,101210.89
2019-05-29T11:14:04.750Z,101212.34
2019-05-29T11:16:39.592Z,101217.91
2019-05-29T11:19:08.689Z,101210.42
2019-05-29T11:21:39.883Z,101217.91
2019-05-29T11:24:10.995Z,101220.50
2019-05-29T11:26:42.201Z,101222.59
2019-05-29T11:29:14.401Z,101214.67
2019-05-29T11:31:45.491Z,101217.16
2019-05-29T11:34:18.439Z,101222.38
2019-05-29T11:36:49.993Z,101221.67
2019-05-29T11:39:21.294Z,101224.59
2019-05-29T11:41:52.734Z,101223.73
2019-05-29T11:44:24.007Z,101218.81
2019-05-29T11:46:56.126Z,101218.65
2019-05-29T11:49:27.437Z,101235.25
2019-05-29T11:52:22.560Z,101228.65
2019-05-29T11:54:36.902Z,101233.81
2019-05-29T11:57:08.011Z,101209.03
2019-05-29T11:59:39.166Z,101226.52
2019-05-29T12:02:10.334Z,101238.02
2019-05-29T12:04:41.485Z,101232.91
2019-05-29T12:07:12.732Z,101222.73
2019-05-29T12:09:43.859Z,101227.03
2019-05-29T12:12:15.050Z,101239.40
2019-05-29T12:15:00.710Z,101234.19
2019-05-29T12:17:19.123Z,101238.20
2019-05-29T12:19:50.334Z,101243.20
2019-05-29T12:22:21.553Z,101242.62
2019-05-29T12:24:54.391Z,101232.27
2019-05-29T12:27:25.772Z,101241.27
2019-05-29T12:29:57.038Z,101254.50
2019-05-29T12:32:29.462Z,101256.34
2019-05-29T12:35:01.124Z,101252.48
2019-05-29T12:37:32.322Z,101252.23
2019-05-29T12:40:04.906Z,101249.80
2019-05-29T12:42:36.974Z,101260.89
2019-05-29T12:45:09.015Z,101257.04
2019-05-29T12:51:00.227Z,101253.87
2019-05-29T12:53:34.021Z,101260.80
2019-05-29T12:56:05.528Z,101259.20
2019-05-29T12:58:36.698Z,101254.23
2019-05-29T13:01:07.897Z,101260.50
2019-05-29T13:03:45.029Z,101257.95
2019-05-29T13:06:36.234Z,101246.06
2019-05-29T13:09:08.887Z,101256.08
2019-05-29T13:11:39.981Z,101260.72
2019-05-29T13:14:11.125Z,101255.78
2019-05-29T13:16:42.209Z,101252.01
2019-05-29T13:19:13.359Z,101254.60
2019-05-29T13:21:44.476Z,101259.16
2019-05-29T13:24:15.640Z,101261.11
2019-05-29T13:26:46.813Z,101266.38
2019-05-29T13:29:17.883Z,101259.59
2019-05-29T13:31:48.994Z,101260.68
2019-05-29T13:34:20.180Z,101261.52
2019-05-29T13:36:52.347Z,101254.48
2019-05-29T13:39:23.498Z,101250.30
2019-05-29T13:41:54.640Z,101256.26
2019-05-29T13:44:26.238Z,101256.36
2019-05-29T13:46:57.800Z,101271.69
2019-05-29T13:49:29.013Z,101269.52
2019-05-29T13:52:02.246Z,101268.36
2019-05-29T13:54:33.020Z,101275.05
2019-05-29T13:57:08.736Z,101261.03
2019-05-29T13:59:41.416Z,101259.84
2019-05-29T14:02:12.548Z,101257.95
2019-05-29T14:04:45.776Z,101257.49
2019-05-29T14:07:18.282Z,101263.85
2019-05-29T14:09:49.417Z,101266.68
2019-05-29T14:12:21.569Z,101265.45
2019-05-29T14:14:52.881Z,101261.47
2019-05-29T14:17:24.108Z,101262.67
2019-05-29T14:19:55.279Z,101275.23
2019-05-29T14:22:26.595Z,101268.56
2019-05-29T14:24:58.731Z,101264.56
2019-05-29T14:27:29.835Z,101268.66
2019-05-29T14:30:01.504Z,101262.36
2019-05-29T14:32:34.596Z,101265.89
2019-05-29T14:35:10.864Z,101264.92
2019-05-29T14:37:43.425Z,101272.09
2019-05-29T14:40:16.193Z,101266.63
2019-05-29T14:42:47.370Z,101277.15
2019-05-29T14:45:18.793Z,101266.12
2019-05-29T14:47:50.207Z,101271.09
2019-05-29T14:50:21.287Z,101264.34
2019-05-29T14:52:52.621Z,101273.66
2019-05-29T14:55:24.685Z,101287.38
2019-05-29T14:57:57.019Z,101283.23
2019-05-29T15:00:28.870Z,101279.50
2019-05-29T15:02:59.987Z,101281.48
2019-05-29T15:05:33.145Z,101280.33
2019-05-29T15:08:06.139Z,101286.69
2019-05-29T15:10:37.357Z,101282.83
2019-05-29T15:13:09.177Z,101285.80
2019-05-29T15:15:42.474Z,101290.28
2019-05-29T15:18:17.320Z,101287.82
2019-05-29T15:20:46.398Z,101292.61
2019-05-29T15:23:17.586Z,101293.64
2019-05-29T15:25:50.210Z,101294.02
2019-05-29T15:28:21.605Z,101298.20
2019-05-29T15:30:54.209Z,101303.14
2019-05-29T15:33:25.327Z,101295.48
2019-05-29T15:35:56.719Z,101297.50
2019-05-29T15:38:31.453Z,101295.39
2019-05-29T15:41:03.588Z,101288.34
2019-05-29T15:43:34.722Z,101295.28
2019-05-29T15:49:37.118Z,101305.56
2019-05-29T15:52:08.987Z,101308.72
2019-05-29T15:54:40.320Z,101315.51
2019-05-29T15:57:11.800Z,101318.70
2019-05-29T15:59:43.293Z,101315.66
2019-05-29T16:02:15.735Z,101314.44
2019-05-29T16:04:48.384Z,101310.74
2019-05-29T16:07:22.807Z,101317.44
2019-05-29T16:09:56.387Z,101298.30
2019-05-29T16:12:31.140Z,101310.06
2019-05-29T16:15:04.615Z,101309.34
2019-05-29T16:17:36.824Z,101307.27
2019-05-29T16:20:12.339Z,101306.72
2019-05-29T16:22:44.660Z,101314.02
2019-05-29T16:25:17.079Z,101313.72
2019-05-29T16:27:49.355Z,101319.78
2019-05-29T16:30:21.895Z,101312.48
2019-05-29T16:32:58.883Z,101324.50
2019-05-29T16:35:31.914Z,101317.52
2019-05-29T16:38:03.176Z,101328.56
2019-05-29T16:40:34.704Z,101329.91
2019-05-29T16:43:06.011Z,101335.53
2019-05-29T16:45:38.702Z,101331.34
2019-05-29T16:48:12.882Z,101335.32
2019-05-29T16:50:46.568Z,101337.45
2019-05-29T16:53:20.947Z,101337.47
2019-05-29T16:55:54.350Z,101338.09
2019-05-29T16:58:27.266Z,101337.45
2019-05-29T17:00:59.198Z,101344.63
2019-05-29T17:03:32.289Z,101337.39
2019-05-29T17:06:04.650Z,101336.10
2019-05-29T17:08:36.587Z,101343.16
2019-05-29T17:11:08.697Z,101350.34
2019-05-29T17:16:39.105Z,101344.69
2019-05-29T17:19:11.034Z,101351.80
2019-05-29T17:21:43.742Z,101357.98
2019-05-29T17:24:16.645Z,101368.52
2019-05-29T17:26:49.019Z,101363.90
2019-05-29T17:29:22.876Z,101364.95
2019-05-29T17:31:55.575Z,101366.81
2019-05-29T17:34:29.298Z,101382.92
2019-05-29T17:37:01.363Z,101376.41
2019-05-29T17:39:34.539Z,101370.56
2019-05-29T17:42:07.653Z,101381.25
2019-05-29T17:44:41.065Z,101380.53
2019-05-29T17:47:13.438Z,101387.25
2019-05-29T17:49:46.280Z,101389.55
2019-05-29T17:52:19.666Z,101395.33
2019-05-29T17:54:51.756Z,101400.81
2019-05-29T17:57:23.894Z,101391.80
2019-05-29T17:59:55.734Z,101395.24
2019-05-29T18:02:27.639Z,101396.72
2019-05-29T18:05:00.548Z,101394.30
2019-05-29T18:07:34.295Z,101394.91
2019-05-29T18:10:08.249Z,101398.61
2019-05-29T18:12:40.016Z,101410.09
2019-05-29T18:15:14.150Z,101413.94
2019-05-29T18:17:47.516Z,101414.66
2019-05-29T18:20:19.956Z,101410.97
2019-05-29T18:22:52.135Z,101419.52
2019-05-29T18:25:24.139Z,101427.04
2019-05-29T18:27:56.255Z,101432.12
2019-05-29T18:30:28.831Z,101439.27
2019-05-29T18:33:00.221Z,101440.25
2019-05-29T18:35:31.492Z,101444.75
2019-05-29T18:38:02.731Z,101446.94
2019-05-29T18:40:36.189Z,101458.64
2019-05-29T18:43:08.446Z,101464.53
2019-05-29T18:45:39.471Z,101464.50
2019-05-29T18:48:10.511Z,101472.07
2019-05-29T18:50:44.258Z,101468.50
2019-05-29T18:53:14.362Z,101471.84
2019-05-29T18:55:45.386Z,101481.94
2019-05-29T18:58:16.485Z,101482.94
2019-05-29T19:00:47.564Z,101482.98
2019-05-29T19:03:19.676Z,101493.30
2019-05-29T19:05:50.743Z,101492.98
2019-05-29T19:08:21.776Z,101497.61
